CheckWX is a tool to help pilots better visualize weather data.  It is not intended as a substitute for an official pre-flight weather briefing.

16:29:12 UTC

PAWS METAR
Wasilla Airport
Wasilla, Alaska, USA
Current

33 mins ago

PAWS 171556Z AUTO 34003KT 10SM CLR 00/M04 A2906 RMK AO2 SLP847 T00001039 FZRANO
Observed
Oct-17 @ 15:56 UTC
Wind
  • 340° at 3 KTS
Visibility
10 SM
Flight Rules
VFR
Cloud Levels
  • Clear skies
Temperature
C / 32°F
Dewpoint
-4°C / 25°F
Humidity
75%
Altimeter
29.06" Hg
Pressure
984.12 hPa
Previous

2 hours ago

PAWS 171456Z AUTO 03005KT 10SM CLR 02/M06 A2906 RMK AO2 SLP845 T00171056 56001 FZRANO
Observed
Oct-17 @ 14:56 UTC
Wind
  • 030° at 5 KTS
Visibility
10 SM
Flight Rules
VFR
Cloud Levels
  • Clear skies
Temperature
C / 36°F
Dewpoint
-6°C / 21°F
Humidity
56%
Altimeter
29.06" Hg
Pressure
984.12 hPa
Previous

3 hours ago

PAWS 171356Z AUTO 04010G16KT 10SM OVC080 02/M06 A2906 RMK AO2 SLP845 T00221056 FZRANO
Observed
Oct-17 @ 13:56 UTC
Wind
  • 040° at 10 KTS
  • Gusting to 16 KTS
Visibility
10 SM
Flight Rules
VFR
Cloud Levels
  • Overcast at 8,000' AGL
Temperature
C / 36°F
Dewpoint
-6°C / 21°F
Humidity
56%
Altimeter
29.06" Hg
Pressure
984.12 hPa